createdAt,value
2017-06-15T00:00:15.312Z,16.40
2017-06-15T00:02:43.173Z,16.20
2017-06-15T00:05:10.696Z,16.20
2017-06-15T00:07:38.156Z,16.40
2017-06-15T00:10:05.629Z,16.40
2017-06-15T00:12:33.121Z,16.30
2017-06-15T00:15:00.586Z,16.20
2017-06-15T00:17:28.065Z,16.30
2017-06-15T00:19:55.553Z,16.10
2017-06-15T00:22:23.017Z,16.20
2017-06-15T00:24:50.511Z,16.30
2017-06-15T00:27:18.074Z,16.30
2017-06-15T00:29:45.540Z,16.30
2017-06-15T00:32:13.016Z,16.40
2017-06-15T00:34:40.535Z,16.30
2017-06-15T00:37:08.013Z,16.50
2017-06-15T00:39:35.500Z,16.40
2017-06-15T00:42:03.572Z,16.30
2017-06-15T00:44:31.452Z,16.30
2017-06-15T00:46:58.912Z,16.30
2017-06-15T00:49:26.757Z,16.20
2017-06-15T00:51:54.232Z,16.10
2017-06-15T00:54:21.701Z,16.10
2017-06-15T00:56:49.209Z,16.00
2017-06-15T00:59:16.677Z,15.70
2017-06-15T01:01:44.553Z,15.50
2017-06-15T01:04:12.163Z,15.50
2017-06-15T01:06:39.633Z,15.70
2017-06-15T01:09:07.101Z,15.70
2017-06-15T01:11:34.773Z,15.80
2017-06-15T01:14:02.645Z,15.60
2017-06-15T01:16:30.505Z,15.70
2017-06-15T01:18:58.400Z,15.50
2017-06-15T01:21:25.875Z,15.50
2017-06-15T01:23:53.341Z,15.50
2017-06-15T01:26:21.141Z,15.70
2017-06-15T01:28:49.016Z,15.70
2017-06-15T01:31:16.491Z,15.70
2017-06-15T01:33:43.994Z,15.60
2017-06-15T01:36:11.490Z,15.60
2017-06-15T01:38:39.352Z,15.60
2017-06-15T01:41:06.850Z,15.60
2017-06-15T01:43:34.330Z,15.60
2017-06-15T01:46:01.803Z,15.30
2017-06-15T01:48:29.564Z,15.40
2017-06-15T01:50:57.037Z,15.40
2017-06-15T01:53:24.523Z,15.40
2017-06-15T01:55:52.208Z,15.50
2017-06-15T01:58:19.681Z,15.50
2017-06-15T02:00:47.149Z,15.40
2017-06-15T02:03:14.652Z,15.40
2017-06-15T02:05:42.125Z,15.40
2017-06-15T02:08:09.604Z,15.20
2017-06-15T02:10:37.290Z,15.10
2017-06-15T02:13:04.761Z,15.10
2017-06-15T02:15:32.232Z,15.00
2017-06-15T02:17:59.718Z,14.90
2017-06-15T02:20:27.181Z,14.90
2017-06-15T02:22:54.660Z,14.70
2017-06-15T02:25:22.572Z,14.70
2017-06-15T02:27:50.041Z,14.80
2017-06-15T02:30:17.512Z,14.90
2017-06-15T02:32:45.297Z,14.70
2017-06-15T02:35:13.169Z,14.60
2017-06-15T02:37:41.038Z,14.70
2017-06-15T02:40:08.925Z,14.60
2017-06-15T02:42:36.400Z,14.70
2017-06-15T02:45:03.870Z,14.70
2017-06-15T02:47:31.365Z,14.60
2017-06-15T02:49:58.838Z,14.60
2017-06-15T02:52:26.311Z,14.50
2017-06-15T02:54:54.029Z,14.60
2017-06-15T02:57:21.504Z,14.60
2017-06-15T02:59:49.379Z,14.60
2017-06-15T03:02:17.093Z,14.60
2017-06-15T03:04:44.569Z,14.60
2017-06-15T03:07:12.438Z,14.60
2017-06-15T03:09:39.958Z,14.60
2017-06-15T03:12:07.429Z,14.60
2017-06-15T03:14:34.901Z,14.70
2017-06-15T03:17:02.889Z,14.80
2017-06-15T03:19:30.364Z,14.80
2017-06-15T03:21:57.836Z,14.90
2017-06-15T03:24:25.349Z,14.80
2017-06-15T03:26:53.217Z,14.80
2017-06-15T03:29:20.697Z,14.80
2017-06-15T03:31:48.197Z,14.70
2017-06-15T03:34:15.666Z,14.80
2017-06-15T03:36:43.140Z,14.90
2017-06-15T03:39:10.637Z,14.90
2017-06-15T03:41:38.119Z,14.90
2017-06-15T03:44:05.594Z,15.10
2017-06-15T03:46:33.662Z,14.90
2017-06-15T03:49:01.698Z,14.90
2017-06-15T03:51:29.166Z,14.90
2017-06-15T03:53:56.949Z,15.00
2017-06-15T03:56:24.418Z,14.90
2017-06-15T03:58:52.277Z,15.10
2017-06-15T04:01:19.781Z,15.10
2017-06-15T04:03:47.258Z,15.20
2017-06-15T04:06:14.741Z,15.20
2017-06-15T04:08:42.544Z,15.10
2017-06-15T04:11:10.014Z,15.30
2017-06-15T04:13:37.486Z,15.30
2017-06-15T04:16:05.066Z,15.30
2017-06-15T04:18:32.948Z,15.50
2017-06-15T04:21:00.426Z,15.50
2017-06-15T04:23:27.925Z,15.50
2017-06-15T04:25:55.401Z,15.50
2017-06-15T04:28:22.869Z,15.30
2017-06-15T04:30:50.393Z,15.30
2017-06-15T04:33:17.868Z,15.10
2017-06-15T04:35:45.734Z,15.30
2017-06-15T04:38:13.625Z,15.40
2017-06-15T04:40:41.093Z,15.40
2017-06-15T04:43:08.573Z,15.40
2017-06-15T04:45:36.257Z,15.40
2017-06-15T04:48:03.737Z,15.40
2017-06-15T04:50:31.210Z,15.40
2017-06-15T04:52:59.158Z,15.40
2017-06-15T04:55:26.625Z,15.70
2017-06-15T04:57:54.107Z,15.70
2017-06-15T05:00:22.218Z,15.60
2017-06-15T05:02:49.936Z,15.70
2017-06-15T05:05:17.406Z,15.70
2017-06-15T05:07:44.901Z,15.70
2017-06-15T05:10:12.769Z,15.80
2017-06-15T05:12:40.249Z,15.80
2017-06-15T05:15:07.754Z,15.90
2017-06-15T05:17:35.219Z,15.90
2017-06-15T05:20:02.698Z,16.00
2017-06-15T05:22:30.652Z,16.10
2017-06-15T05:24:58.518Z,16.20
2017-06-15T05:27:26.382Z,16.30
2017-06-15T05:29:53.975Z,16.30
2017-06-15T05:32:21.437Z,16.40
2017-06-15T05:34:48.906Z,16.50
2017-06-15T05:37:17.169Z,16.50
2017-06-15T05:39:44.645Z,16.60
2017-06-15T05:42:12.141Z,16.60
2017-06-15T05:44:39.610Z,16.70
2017-06-15T05:47:07.073Z,16.80
2017-06-15T05:49:34.581Z,16.90
2017-06-15T05:52:02.056Z,16.90
2017-06-15T05:54:29.528Z,16.90
2017-06-15T05:56:57.428Z,16.90
2017-06-15T05:59:24.901Z,16.90
2017-06-15T06:01:52.393Z,17.00
2017-06-15T06:04:20.107Z,17.00
2017-06-15T06:06:47.621Z,17.10
2017-06-15T06:09:15.090Z,17.20
2017-06-15T06:11:42.896Z,17.30
2017-06-15T06:14:10.372Z,17.30
2017-06-15T06:16:37.848Z,17.30
2017-06-15T06:19:05.353Z,17.50
2017-06-15T06:21:32.823Z,17.50
2017-06-15T06:24:00.285Z,17.60
2017-06-15T06:26:28.036Z,17.70
2017-06-15T06:28:55.524Z,17.80
2017-06-15T06:31:23.389Z,17.90
2017-06-15T06:33:52.282Z,18.00
2017-06-15T06:36:19.756Z,18.00
2017-06-15T06:38:47.235Z,18.00
2017-06-15T06:41:15.672Z,18.10
2017-06-15T06:43:43.748Z,18.30
2017-06-15T06:46:11.214Z,18.40
2017-06-15T06:48:39.990Z,18.40
2017-06-15T06:51:07.457Z,18.60
2017-06-15T06:53:34.941Z,18.50
2017-06-15T06:56:02.442Z,18.60
2017-06-15T06:58:29.916Z,18.60
2017-06-15T07:00:57.392Z,18.70
2017-06-15T07:03:25.218Z,18.90
2017-06-15T07:05:53.096Z,19.20
2017-06-15T07:08:20.698Z,19.20
2017-06-15T07:10:48.288Z,19.30
2017-06-15T07:13:15.757Z,19.20
2017-06-15T07:15:43.618Z,19.40
2017-06-15T07:18:11.120Z,19.40
2017-06-15T07:20:38.590Z,19.50
2017-06-15T07:23:06.060Z,19.60
2017-06-15T07:25:34.075Z,19.70
2017-06-15T07:28:01.552Z,19.80
2017-06-15T07:30:29.111Z,19.70
2017-06-15T07:32:57.571Z,19.80
2017-06-15T07:35:25.047Z,19.90
2017-06-15T07:37:52.517Z,20.00
2017-06-15T07:40:20.834Z,20.20
2017-06-15T07:42:48.301Z,20.20
2017-06-15T07:45:15.770Z,20.10
2017-06-15T07:47:43.261Z,20.30
2017-06-15T07:50:10.735Z,20.30
2017-06-15T07:52:38.197Z,20.20
2017-06-15T07:55:05.800Z,20.50
2017-06-15T07:57:33.280Z,20.70
2017-06-15T08:00:00.765Z,20.60
2017-06-15T08:02:28.279Z,20.70
2017-06-15T08:04:55.755Z,20.80
2017-06-15T08:07:23.225Z,21.10
2017-06-15T08:09:51.019Z,21.00
2017-06-15T08:12:18.891Z,20.90
2017-06-15T08:14:46.362Z,20.90
2017-06-15T08:17:14.194Z,20.80
2017-06-15T08:19:41.922Z,20.90
2017-06-15T08:22:09.392Z,21.00
2017-06-15T08:24:36.896Z,21.10
2017-06-15T08:27:04.373Z,21.30
2017-06-15T08:29:31.857Z,21.20
2017-06-15T08:31:59.369Z,21.10
2017-06-15T08:34:27.038Z,21.20
2017-06-15T08:36:54.532Z,21.30
2017-06-15T08:39:22.110Z,21.30
2017-06-15T08:41:49.588Z,21.50
2017-06-15T08:44:17.072Z,21.40
2017-06-15T08:46:44.568Z,21.40
2017-06-15T08:49:12.048Z,21.60
2017-06-15T08:51:39.920Z,21.80
2017-06-15T08:54:07.434Z,21.80
2017-06-15T08:56:34.905Z,21.80
2017-06-15T08:59:02.381Z,22.00
2017-06-15T09:01:29.887Z,22.40
2017-06-15T09:03:57.354Z,22.20
2017-06-15T09:06:24.828Z,22.20
2017-06-15T09:08:52.316Z,22.20
2017-06-15T09:11:19.803Z,22.30
2017-06-15T09:13:47.273Z,22.40
2017-06-15T09:16:14.765Z,22.40
2017-06-15T09:18:42.640Z,22.50
2017-06-15T09:21:10.511Z,22.60
2017-06-15T09:23:38.028Z,22.60
2017-06-15T09:26:05.502Z,22.60
2017-06-15T09:28:32.985Z,22.80
2017-06-15T09:31:00.836Z,22.90
2017-06-15T09:33:28.301Z,23.00
2017-06-15T09:35:55.769Z,22.80
2017-06-15T09:38:23.272Z,22.90
2017-06-15T09:40:50.742Z,22.90
2017-06-15T09:43:18.218Z,22.70
2017-06-15T09:45:45.954Z,22.70
2017-06-15T09:48:13.435Z,23.10
2017-06-15T09:50:40.908Z,23.10
2017-06-15T09:53:08.396Z,23.10
2017-06-15T09:55:35.871Z,23.20
2017-06-15T09:58:03.337Z,23.10
2017-06-15T10:00:32.347Z,23.20
2017-06-15T10:02:59.833Z,23.20
2017-06-15T10:05:27.301Z,23.40
2017-06-15T10:07:54.798Z,23.10
2017-06-15T10:10:22.677Z,23.30
2017-06-15T10:12:50.150Z,23.30
2017-06-15T10:15:17.651Z,23.30
2017-06-15T10:17:45.131Z,23.50
2017-06-15T10:20:13.013Z,23.80
2017-06-15T10:22:40.505Z,23.80
2017-06-15T10:25:07.974Z,23.90
2017-06-15T10:27:35.456Z,23.50
2017-06-15T10:30:03.349Z,23.80
2017-06-15T10:32:31.068Z,23.80
2017-06-15T10:34:58.916Z,24.00
2017-06-15T10:37:27.283Z,24.20
2017-06-15T10:39:54.767Z,24.30
2017-06-15T10:42:22.256Z,24.40
2017-06-15T10:44:49.762Z,24.50
2017-06-15T10:47:17.255Z,24.80
2017-06-15T10:49:45.129Z,25.00
2017-06-15T10:52:12.711Z,25.00
2017-06-15T10:54:41.067Z,25.10
2017-06-15T10:57:08.556Z,25.20
2017-06-15T10:59:36.370Z,25.50
2017-06-15T11:02:03.852Z,25.30
2017-06-15T11:04:31.360Z,25.00
2017-06-15T11:06:58.864Z,24.80
2017-06-15T11:09:26.343Z,25.20
2017-06-15T11:11:53.823Z,25.50
2017-06-15T11:14:21.420Z,25.80
2017-06-15T11:16:49.526Z,25.60
2017-06-15T11:19:17.011Z,25.60
2017-06-15T11:21:44.893Z,25.50
2017-06-15T11:24:12.362Z,25.20
2017-06-15T11:26:39.841Z,25.70
2017-06-15T11:29:07.432Z,25.80
2017-06-15T11:31:34.912Z,25.20
2017-06-15T11:34:02.388Z,25.70
2017-06-15T11:36:30.286Z,26.00
2017-06-15T11:38:57.771Z,26.00
2017-06-15T11:41:25.251Z,26.90
2017-06-15T11:43:52.753Z,27.00
2017-06-15T11:46:20.198Z,26.80
2017-06-15T11:48:47.635Z,26.30
2017-06-15T11:51:15.363Z,26.00
2017-06-15T11:53:42.816Z,26.30
2017-06-15T11:56:10.266Z,26.50
2017-06-15T11:58:38.024Z,26.50
2017-06-15T12:01:05.546Z,26.40
2017-06-15T12:03:32.989Z,26.60
2017-06-15T12:06:00.664Z,27.00
2017-06-15T12:08:28.116Z,27.10
2017-06-15T12:10:55.569Z,27.20
2017-06-15T12:13:23.263Z,26.70
2017-06-15T12:15:50.697Z,26.90
2017-06-15T12:18:18.139Z,27.10
2017-06-15T12:20:45.623Z,26.90
2017-06-15T12:23:13.063Z,26.50
2017-06-15T12:25:40.504Z,27.00
2017-06-15T12:28:08.074Z,27.10
2017-06-15T12:30:35.521Z,27.40
2017-06-15T12:33:02.978Z,27.30
2017-06-15T12:35:30.778Z,27.10
2017-06-15T12:37:58.219Z,26.50
2017-06-15T12:40:26.533Z,26.40
2017-06-15T12:42:53.981Z,26.00
2017-06-15T12:45:21.418Z,26.20
2017-06-15T12:47:48.855Z,26.50
2017-06-15T12:50:16.519Z,26.70
2017-06-15T12:52:44.251Z,26.70
2017-06-15T12:55:12.364Z,25.70
2017-06-15T12:57:40.117Z,25.60
2017-06-15T13:00:07.571Z,25.60
2017-06-15T13:02:35.008Z,25.40
2017-06-15T13:05:03.240Z,25.30
2017-06-15T13:07:30.683Z,25.10
2017-06-15T13:09:58.127Z,25.10
2017-06-15T13:12:25.768Z,25.10
2017-06-15T13:14:53.210Z,24.90
2017-06-15T13:17:20.647Z,24.80
2017-06-15T13:19:48.109Z,24.60
2017-06-15T13:22:15.563Z,24.60
2017-06-15T13:24:43.021Z,24.60
2017-06-15T13:27:10.816Z,24.70
2017-06-15T13:29:38.274Z,24.70
2017-06-15T13:32:05.711Z,24.50
2017-06-15T13:34:33.576Z,24.50
2017-06-15T13:37:01.020Z,24.40
2017-06-15T13:39:28.461Z,24.40
2017-06-15T13:41:55.952Z,24.40
2017-06-15T13:44:23.392Z,24.40
2017-06-15T13:46:51.057Z,24.40
2017-06-15T13:49:18.719Z,24.40
2017-06-15T13:51:46.174Z,24.30
2017-06-15T13:54:13.626Z,24.30
2017-06-15T13:56:41.100Z,24.30
2017-06-15T13:59:08.555Z,24.30
2017-06-15T14:01:35.995Z,24.40
2017-06-15T14:04:03.658Z,24.40
2017-06-15T14:06:31.092Z,24.40
2017-06-15T14:08:59.160Z,24.60
2017-06-15T14:11:26.837Z,24.60
2017-06-15T14:13:54.315Z,24.70
2017-06-15T14:16:21.756Z,24.90
2017-06-15T14:18:49.838Z,25.10
2017-06-15T14:21:17.281Z,25.20
2017-06-15T14:23:45.242Z,25.30
2017-06-15T14:26:12.704Z,25.40
2017-06-15T14:28:40.144Z,25.50
2017-06-15T14:31:07.600Z,25.50
2017-06-15T14:33:35.174Z,25.50
2017-06-15T14:36:02.736Z,25.60
2017-06-15T14:38:31.476Z,25.40
2017-06-15T14:40:59.200Z,25.40
2017-06-15T14:43:26.655Z,25.70
2017-06-15T14:45:54.110Z,25.80
2017-06-15T14:48:21.557Z,25.50
2017-06-15T14:50:49.012Z,25.30
2017-06-15T14:53:16.858Z,25.20
2017-06-15T14:55:44.616Z,25.30
2017-06-15T14:58:12.071Z,25.10
2017-06-15T15:00:39.515Z,25.10
2017-06-15T15:03:06.999Z,25.00
2017-06-15T15:05:34.463Z,25.00
2017-06-15T15:08:01.916Z,24.90
2017-06-15T15:10:29.384Z,24.90
2017-06-15T15:12:56.838Z,24.90
2017-06-15T15:15:24.675Z,24.90
2017-06-15T15:17:52.471Z,24.90
2017-06-15T15:20:19.908Z,24.80
2017-06-15T15:22:47.592Z,24.80
2017-06-15T15:25:15.052Z,24.70
2017-06-15T15:27:42.488Z,24.70
2017-06-15T15:30:09.949Z,24.60
2017-06-15T15:32:37.887Z,24.50
2017-06-15T15:35:05.326Z,24.60
2017-06-15T15:37:32.782Z,24.50
2017-06-15T15:40:00.449Z,24.50
2017-06-15T15:42:27.906Z,24.40
2017-06-15T15:44:55.527Z,24.50
2017-06-15T15:47:22.983Z,24.60
2017-06-15T15:49:50.443Z,24.50
2017-06-15T15:52:17.899Z,24.50
2017-06-15T15:54:45.352Z,24.60
2017-06-15T15:57:12.809Z,24.70
2017-06-15T15:59:40.261Z,24.70
2017-06-15T16:02:08.312Z,24.60
2017-06-15T16:04:35.766Z,24.60
2017-06-15T16:07:04.472Z,24.50
2017-06-15T16:09:31.931Z,24.50
2017-06-15T16:12:00.026Z,24.50
2017-06-15T16:14:27.549Z,24.40
2017-06-15T16:16:55.341Z,24.40
2017-06-15T16:19:23.423Z,24.30
2017-06-15T16:21:50.878Z,24.30
2017-06-15T16:24:18.732Z,24.30
2017-06-15T16:26:46.176Z,24.20
2017-06-15T16:29:13.619Z,24.10
2017-06-15T16:31:41.291Z,24.00
2017-06-15T16:34:09.156Z,23.90
2017-06-15T16:36:36.614Z,23.90
2017-06-15T16:39:04.347Z,23.90
2017-06-15T16:41:31.801Z,23.90
2017-06-15T16:43:59.679Z,23.90
2017-06-15T16:46:27.319Z,23.80
2017-06-15T16:48:54.780Z,23.80
2017-06-15T16:51:22.661Z,23.70
2017-06-15T16:53:50.645Z,23.70
2017-06-15T16:56:18.123Z,23.80
2017-06-15T16:58:45.574Z,23.70
2017-06-15T17:01:14.002Z,23.70
2017-06-15T17:03:41.457Z,23.60
2017-06-15T17:06:08.918Z,23.50
2017-06-15T17:08:36.416Z,23.40
2017-06-15T17:11:04.670Z,23.30
2017-06-15T17:13:32.110Z,23.20
2017-06-15T17:15:59.587Z,23.20
2017-06-15T17:18:27.038Z,23.10
2017-06-15T17:20:54.571Z,23.00
2017-06-15T17:23:22.351Z,22.90
2017-06-15T17:25:49.800Z,22.80
2017-06-15T17:28:17.255Z,22.60
2017-06-15T17:30:44.746Z,22.40
2017-06-15T17:33:12.208Z,22.30
2017-06-15T17:35:39.658Z,22.20
2017-06-15T17:38:07.351Z,22.10
2017-06-15T17:40:34.803Z,21.90
2017-06-15T17:43:03.559Z,21.70
2017-06-15T17:45:31.047Z,21.60
2017-06-15T17:47:58.516Z,21.40
2017-06-15T17:50:26.316Z,21.30
2017-06-15T17:52:54.090Z,21.40
2017-06-15T17:55:21.546Z,21.30
2017-06-15T17:57:49.043Z,21.30
2017-06-15T18:00:17.439Z,21.30
2017-06-15T18:02:44.915Z,21.40
2017-06-15T18:05:13.006Z,21.50
2017-06-15T18:07:40.775Z,21.40
2017-06-15T18:12:43.068Z,21.30
2017-06-15T18:15:10.526Z,21.20
2017-06-15T18:17:38.004Z,21.20
2017-06-15T18:20:05.498Z,21.10
2017-06-15T18:22:32.954Z,21.00
2017-06-15T18:25:00.430Z,21.00
2017-06-15T18:27:28.747Z,21.00
2017-06-15T18:29:56.193Z,20.90
2017-06-15T18:32:23.650Z,20.80
2017-06-15T18:34:51.330Z,20.80
2017-06-15T18:37:19.253Z,20.70
2017-06-15T18:39:46.696Z,20.70
2017-06-15T18:42:15.306Z,20.70
2017-06-15T18:44:42.766Z,20.70
2017-06-15T18:47:10.216Z,20.70
2017-06-15T18:49:38.338Z,20.80
2017-06-15T18:52:06.018Z,20.80
2017-06-15T18:54:33.621Z,20.80
2017-06-15T18:57:01.318Z,20.80
2017-06-15T18:59:28.775Z,20.70
2017-06-15T19:01:56.593Z,20.80
2017-06-15T19:04:24.322Z,20.80
2017-06-15T19:06:52.421Z,20.70
2017-06-15T19:09:20.067Z,20.60
2017-06-15T19:11:47.945Z,20.40
2017-06-15T19:14:15.414Z,20.40
2017-06-15T19:16:42.880Z,20.40
2017-06-15T19:19:11.562Z,20.30
2017-06-15T19:21:39.001Z,20.30
2017-06-15T19:24:06.936Z,20.30
2017-06-15T19:26:34.401Z,20.20
2017-06-15T19:29:01.848Z,20.20
2017-06-15T19:31:29.662Z,20.30
2017-06-15T19:33:57.301Z,20.20
2017-06-15T19:36:24.752Z,20.30
2017-06-15T19:38:52.482Z,20.30
2017-06-15T19:41:19.972Z,20.20
2017-06-15T19:43:48.538Z,20.10
2017-06-15T19:46:16.395Z,19.90
2017-06-15T19:48:43.857Z,19.90
2017-06-15T19:51:11.895Z,19.50
2017-06-15T19:53:39.348Z,19.50
2017-06-15T19:56:06.822Z,19.50
2017-06-15T19:58:34.319Z,19.40
2017-06-15T20:01:01.800Z,19.40
2017-06-15T20:03:29.260Z,19.30
2017-06-15T20:05:57.827Z,19.40
2017-06-15T20:08:25.626Z,19.70
2017-06-15T20:10:53.649Z,19.80
2017-06-15T20:13:21.121Z,19.80
2017-06-15T20:15:48.595Z,19.70
2017-06-15T20:18:16.090Z,19.60
2017-06-15T20:21:01.238Z,19.40
2017-06-15T20:23:29.204Z,19.30
2017-06-15T20:25:56.662Z,19.20
2017-06-15T20:28:24.521Z,19.20
2017-06-15T20:30:52.173Z,19.20
2017-06-15T20:33:28.776Z,19.20
2017-06-15T20:35:56.924Z,19.10
2017-06-15T20:38:24.378Z,19.10
2017-06-15T20:40:51.848Z,19.00
2017-06-15T20:43:19.597Z,18.80
2017-06-15T20:45:47.428Z,18.70
2017-06-15T20:48:14.864Z,18.60
2017-06-15T20:50:42.362Z,18.60
2017-06-15T20:53:09.812Z,18.70
2017-06-15T20:55:37.279Z,18.60
2017-06-15T20:58:05.030Z,18.50
2017-06-15T21:00:32.785Z,18.40
2017-06-15T21:03:00.229Z,18.30
2017-06-15T21:05:27.690Z,18.20
2017-06-15T21:07:55.168Z,18.20
2017-06-15T21:10:22.967Z,18.20
2017-06-15T21:12:50.400Z,18.20
2017-06-15T21:15:18.135Z,18.30
2017-06-15T21:17:45.592Z,18.20
2017-06-15T21:20:13.054Z,18.20
2017-06-15T21:22:40.541Z,18.30
2017-06-15T21:25:08.002Z,18.40
2017-06-15T21:27:35.458Z,18.40
2017-06-15T21:30:03.032Z,18.60
2017-06-15T21:32:30.491Z,18.50
2017-06-15T21:34:57.944Z,18.60
2017-06-15T21:37:25.518Z,18.50
2017-06-15T21:39:52.978Z,18.50
2017-06-15T21:42:20.432Z,18.40
2017-06-15T21:44:47.912Z,18.40
2017-06-15T21:47:17.617Z,18.40
2017-06-15T21:49:45.070Z,18.20
2017-06-15T21:52:13.634Z,18.20
2017-06-15T21:54:41.076Z,18.00
2017-06-15T21:57:08.529Z,17.90
2017-06-15T21:59:36.213Z,17.80
2017-06-15T22:02:03.664Z,17.80
2017-06-15T22:04:31.125Z,17.90
2017-06-15T22:06:58.780Z,17.80
2017-06-15T22:09:26.228Z,17.70
2017-06-15T22:11:53.676Z,17.60
2017-06-15T22:14:21.348Z,17.60
2017-06-15T22:16:48.796Z,17.50
2017-06-15T22:19:16.242Z,17.60
2017-06-15T22:21:43.711Z,17.50
2017-06-15T22:24:11.171Z,17.50
2017-06-15T22:26:38.631Z,17.50
2017-06-15T22:29:06.107Z,17.50
2017-06-15T22:31:33.551Z,17.50
2017-06-15T22:34:01.000Z,17.30
2017-06-15T22:36:28.749Z,17.50
2017-06-15T22:38:56.196Z,17.50
2017-06-15T22:41:23.647Z,17.30
2017-06-15T22:43:51.426Z,17.20
2017-06-15T22:46:18.879Z,17.10
2017-06-15T22:48:46.580Z,16.90
2017-06-15T22:51:14.044Z,16.80
2017-06-15T22:53:41.500Z,16.90
2017-06-15T22:56:08.950Z,17.00
2017-06-15T22:58:36.957Z,17.10
2017-06-15T23:01:04.400Z,17.10
2017-06-15T23:03:44.071Z,17.20
2017-06-15T23:06:11.520Z,17.20
2017-06-15T23:08:38.959Z,17.10
2017-06-15T23:11:06.421Z,17.20
2017-06-15T23:13:33.867Z,17.00
2017-06-15T23:16:01.305Z,17.20
2017-06-15T23:18:28.778Z,16.90
2017-06-15T23:20:56.229Z,16.70
2017-06-15T23:23:23.675Z,16.40
2017-06-15T23:25:51.370Z,16.40
2017-06-15T23:28:18.804Z,16.40
2017-06-15T23:30:46.247Z,16.40
2017-06-15T23:33:13.936Z,16.30
2017-06-15T23:35:41.385Z,16.30
2017-06-15T23:38:08.825Z,16.30
2017-06-15T23:40:36.296Z,16.60
2017-06-15T23:43:03.741Z,16.60
2017-06-15T23:45:31.191Z,16.70
2017-06-15T23:47:58.655Z,16.70
2017-06-15T23:50:26.168Z,16.70
2017-06-15T23:52:54.006Z,16.60
2017-06-15T23:55:21.474Z,16.60
2017-06-15T23:57:49.304Z,16.70
